sensor_id;sensor_type;location;lat;lon;timestamp;temperature;humidity
8539;DHT22;4307;53.868;11.680;2024-03-02T00:00:14;9.00;99.90
8539;DHT22;4307;53.868;11.680;2024-03-02T00:02:41;9.00;99.90
8539;DHT22;4307;53.868;11.680;2024-03-02T00:05:11;9.00;99.90
8539;DHT22;4307;53.868;11.680;2024-03-02T00:07:38;8.90;99.90
8539;DHT22;4307;53.868;11.680;2024-03-02T00:10:08;8.90;99.90
8539;DHT22;4307;53.868;11.680;2024-03-02T00:12:36;8.90;99.90
8539;DHT22;4307;53.868;11.680;2024-03-02T00:15:05;8.80;99.90
8539;DHT22;4307;53.868;11.680;2024-03-02T00:17:33;8.70;99.90
8539;DHT22;4307;53.868;11.680;2024-03-02T00:19:59;8.60;99.90
8539;DHT22;4307;53.868;11.680;2024-03-02T00:22:29;8.50;99.90
8539;DHT22;4307;53.868;11.680;2024-03-02T00:24:56;8.40;99.90
8539;DHT22;4307;53.868;11.680;2024-03-02T00:27:23;8.40;99.90
8539;DHT22;4307;53.868;11.680;2024-03-02T00:29:50;8.30;99.90
8539;DHT22;4307;53.868;11.680;2024-03-02T00:32:17;8.20;99.90
8539;DHT22;4307;53.868;11.680;2024-03-02T00:34:44;8.10;99.90
8539;DHT22;4307;53.868;11.680;2024-03-02T00:37:11;8.00;99.90
8539;DHT22;4307;53.868;11.680;2024-03-02T00:39:39;7.90;99.90
8539;DHT22;4307;53.868;11.680;2024-03-02T00:42:06;7.80;99.90
8539;DHT22;4307;53.868;11.680;2024-03-02T00:44:33;7.80;99.90
8539;DHT22;4307;53.868;11.680;2024-03-02T00:47:01;7.70;99.90
8539;DHT22;4307;53.868;11.680;2024-03-02T00:49:28;7.70;99.90
8539;DHT22;4307;53.868;11.680;2024-03-02T00:51:55;7.70;99.90
8539;DHT22;4307;53.868;11.680;2024-03-02T00:54:23;7.70;99.90
8539;DHT22;4307;53.868;11.680;2024-03-02T00:56:53;7.70;99.90
8539;DHT22;4307;53.868;11.680;2024-03-02T00:59:21;7.70;99.90
8539;DHT22;4307;53.868;11.680;2024-03-02T01:01:48;7.70;99.90
8539;DHT22;4307;53.868;11.680;2024-03-02T01:04:15;7.60;99.90
8539;DHT22;4307;53.868;11.680;2024-03-02T01:06:42;7.50;99.90
8539;DHT22;4307;53.868;11.680;2024-03-02T01:09:08;7.40;99.90
8539;DHT22;4307;53.868;11.680;2024-03-02T01:11:35;7.40;99.90
8539;DHT22;4307;53.868;11.680;2024-03-02T01:14:03;7.30;99.90
8539;DHT22;4307;53.868;11.680;2024-03-02T01:16:30;7.20;99.90
8539;DHT22;4307;53.868;11.680;2024-03-02T01:18:56;7.20;99.90
8539;DHT22;4307;53.868;11.680;2024-03-02T01:21:23;7.20;99.90
8539;DHT22;4307;53.868;11.680;2024-03-02T01:23:50;7.10;99.90
8539;DHT22;4307;53.868;11.680;2024-03-02T01:26:16;7.10;99.90
8539;DHT22;4307;53.868;11.680;2024-03-02T01:28:43;7.00;99.90
8539;DHT22;4307;53.868;11.680;2024-03-02T01:31:11;7.00;99.90
8539;DHT22;4307;53.868;11.680;2024-03-02T01:33:38;7.00;99.90
8539;DHT22;4307;53.868;11.680;2024-03-02T01:36:05;7.10;99.90
8539;DHT22;4307;53.868;11.680;2024-03-02T01:38:33;7.10;99.90
8539;DHT22;4307;53.868;11.680;2024-03-02T01:41:00;7.10;99.90
8539;DHT22;4307;53.868;11.680;2024-03-02T01:43:27;7.20;99.90
8539;DHT22;4307;53.868;11.680;2024-03-02T01:45:54;7.20;99.90
8539;DHT22;4307;53.868;11.680;2024-03-02T01:48:23;7.10;99.90
8539;DHT22;4307;53.868;11.680;2024-03-02T01:50:50;7.20;99.90
8539;DHT22;4307;53.868;11.680;2024-03-02T01:53:17;7.20;99.90
8539;DHT22;4307;53.868;11.680;2024-03-02T01:55:44;7.20;99.90
8539;DHT22;4307;53.868;11.680;2024-03-02T01:58:11;7.20;99.90
8539;DHT22;4307;53.868;11.680;2024-03-02T02:00:37;7.20;99.90
8539;DHT22;4307;53.868;11.680;2024-03-02T02:03:04;7.20;99.90
8539;DHT22;4307;53.868;11.680;2024-03-02T02:05:33;7.20;99.90
8539;DHT22;4307;53.868;11.680;2024-03-02T02:08:01;7.20;99.90
8539;DHT22;4307;53.868;11.680;2024-03-02T02:10:28;7.20;99.90
8539;DHT22;4307;53.868;11.680;2024-03-02T02:12:54;7.20;99.90
8539;DHT22;4307;53.868;11.680;2024-03-02T02:15:28;7.30;99.90
8539;DHT22;4307;53.868;11.680;2024-03-02T02:17:55;7.30;99.90
8539;DHT22;4307;53.868;11.680;2024-03-02T02:20:22;7.20;99.90
8539;DHT22;4307;53.868;11.680;2024-03-02T02:22:56;7.30;99.90
8539;DHT22;4307;53.868;11.680;2024-03-02T02:25:22;7.30;99.90
8539;DHT22;4307;53.868;11.680;2024-03-02T02:27:49;7.30;99.90
8539;DHT22;4307;53.868;11.680;2024-03-02T02:30:19;7.30;99.90
8539;DHT22;4307;53.868;11.680;2024-03-02T02:32:46;7.40;99.90
8539;DHT22;4307;53.868;11.680;2024-03-02T02:35:13;7.40;99.90
8539;DHT22;4307;53.868;11.680;2024-03-02T02:37:40;7.40;99.90
8539;DHT22;4307;53.868;11.680;2024-03-02T02:40:09;7.40;99.90
8539;DHT22;4307;53.868;11.680;2024-03-02T02:42:35;7.40;99.90
8539;DHT22;4307;53.868;11.680;2024-03-02T02:45:02;7.40;99.90
8539;DHT22;4307;53.868;11.680;2024-03-02T02:47:29;7.40;99.90
8539;DHT22;4307;53.868;11.680;2024-03-02T02:49:56;7.40;99.90
8539;DHT22;4307;53.868;11.680;2024-03-02T02:52:22;7.40;99.90
8539;DHT22;4307;53.868;11.680;2024-03-02T02:54:49;7.40;99.90
8539;DHT22;4307;53.868;11.680;2024-03-02T02:57:18;7.40;99.90
8539;DHT22;4307;53.868;11.680;2024-03-02T02:59:44;7.40;99.90
8539;DHT22;4307;53.868;11.680;2024-03-02T03:02:11;7.50;99.90
8539;DHT22;4307;53.868;11.680;2024-03-02T03:04:40;7.40;99.90
8539;DHT22;4307;53.868;11.680;2024-03-02T03:07:06;7.50;99.90
8539;DHT22;4307;53.868;11.680;2024-03-02T03:09:33;7.50;99.90
8539;DHT22;4307;53.868;11.680;2024-03-02T03:11:59;7.60;99.90
8539;DHT22;4307;53.868;11.680;2024-03-02T03:14:28;7.50;99.90
8539;DHT22;4307;53.868;11.680;2024-03-02T03:16:54;7.60;99.90
8539;DHT22;4307;53.868;11.680;2024-03-02T03:19:21;7.60;99.90
8539;DHT22;4307;53.868;11.680;2024-03-02T03:21:48;7.60;99.90
8539;DHT22;4307;53.868;11.680;2024-03-02T03:24:14;7.60;99.90
8539;DHT22;4307;53.868;11.680;2024-03-02T03:26:41;7.70;99.90
8539;DHT22;4307;53.868;11.680;2024-03-02T03:29:07;7.70;99.90
8539;DHT22;4307;53.868;11.680;2024-03-02T03:31:35;7.70;99.90
8539;DHT22;4307;53.868;11.680;2024-03-02T03:34:02;7.70;99.90
8539;DHT22;4307;53.868;11.680;2024-03-02T03:36:29;7.70;99.90
8539;DHT22;4307;53.868;11.680;2024-03-02T03:38:55;7.60;99.90
8539;DHT22;4307;53.868;11.680;2024-03-02T03:41:23;7.60;99.90
8539;DHT22;4307;53.868;11.680;2024-03-02T03:43:49;7.60;99.90
8539;DHT22;4307;53.868;11.680;2024-03-02T03:46:18;7.50;99.90
8539;DHT22;4307;53.868;11.680;2024-03-02T03:48:46;7.50;99.90
8539;DHT22;4307;53.868;11.680;2024-03-02T03:51:13;7.40;99.90
8539;DHT22;4307;53.868;11.680;2024-03-02T03:53:39;7.40;99.90
8539;DHT22;4307;53.868;11.680;2024-03-02T03:56:06;7.40;99.90
8539;DHT22;4307;53.868;11.680;2024-03-02T03:58:33;7.40;99.90
8539;DHT22;4307;53.868;11.680;2024-03-02T04:00:59;7.30;99.90
8539;DHT22;4307;53.868;11.680;2024-03-02T04:03:26;7.20;99.90
8539;DHT22;4307;53.868;11.680;2024-03-02T04:05:54;7.20;99.90
8539;DHT22;4307;53.868;11.680;2024-03-02T04:08:21;7.10;99.90
8539;DHT22;4307;53.868;11.680;2024-03-02T04:10:47;7.10;99.90
8539;DHT22;4307;53.868;11.680;2024-03-02T04:13:14;7.10;99.90
8539;DHT22;4307;53.868;11.680;2024-03-02T04:15:41;7.00;99.90
8539;DHT22;4307;53.868;11.680;2024-03-02T04:18:07;7.10;99.90
8539;DHT22;4307;53.868;11.680;2024-03-02T04:20:34;7.10;99.90
8539;DHT22;4307;53.868;11.680;2024-03-02T04:23:02;7.10;99.90
8539;DHT22;4307;53.868;11.680;2024-03-02T04:25:29;7.10;99.90
8539;DHT22;4307;53.868;11.680;2024-03-02T04:27:56;7.10;99.90
8539;DHT22;4307;53.868;11.680;2024-03-02T04:30:23;7.10;99.90
8539;DHT22;4307;53.868;11.680;2024-03-02T04:32:50;7.10;99.90
8539;DHT22;4307;53.868;11.680;2024-03-02T04:35:17;7.10;99.90
8539;DHT22;4307;53.868;11.680;2024-03-02T04:37:44;7.10;99.90
8539;DHT22;4307;53.868;11.680;2024-03-02T04:40:12;7.10;99.90
8539;DHT22;4307;53.868;11.680;2024-03-02T04:42:39;7.20;99.90
8539;DHT22;4307;53.868;11.680;2024-03-02T04:45:06;7.20;99.90
8539;DHT22;4307;53.868;11.680;2024-03-02T04:47:33;7.30;99.90
8539;DHT22;4307;53.868;11.680;2024-03-02T04:50:00;7.30;99.90
8539;DHT22;4307;53.868;11.680;2024-03-02T04:52:26;7.40;99.90
8539;DHT22;4307;53.868;11.680;2024-03-02T04:54:53;7.40;99.90
8539;DHT22;4307;53.868;11.680;2024-03-02T04:57:53;7.40;99.90
8539;DHT22;4307;53.868;11.680;2024-03-02T05:00:20;7.50;99.90
8539;DHT22;4307;53.868;11.680;2024-03-02T05:02:46;7.50;99.90
8539;DHT22;4307;53.868;11.680;2024-03-02T05:05:13;7.50;99.90
8539;DHT22;4307;53.868;11.680;2024-03-02T05:07:40;7.50;99.90
8539;DHT22;4307;53.868;11.680;2024-03-02T05:10:08;7.60;99.90
8539;DHT22;4307;53.868;11.680;2024-03-02T05:12:35;7.60;99.90
8539;DHT22;4307;53.868;11.680;2024-03-02T05:15:23;7.60;99.90
8539;DHT22;4307;53.868;11.680;2024-03-02T05:17:49;7.70;99.90
8539;DHT22;4307;53.868;11.680;2024-03-02T05:20:16;7.70;99.90
8539;DHT22;4307;53.868;11.680;2024-03-02T05:22:43;7.70;99.90
8539;DHT22;4307;53.868;11.680;2024-03-02T05:25:10;7.60;99.90
8539;DHT22;4307;53.868;11.680;2024-03-02T05:27:37;7.70;99.90
8539;DHT22;4307;53.868;11.680;2024-03-02T05:30:04;7.60;99.90
8539;DHT22;4307;53.868;11.680;2024-03-02T05:32:34;7.60;99.90
8539;DHT22;4307;53.868;11.680;2024-03-02T05:35:00;7.60;99.90
8539;DHT22;4307;53.868;11.680;2024-03-02T05:37:28;7.60;99.90
8539;DHT22;4307;53.868;11.680;2024-03-02T05:39:55;7.60;99.90
8539;DHT22;4307;53.868;11.680;2024-03-02T05:42:22;7.60;99.90
8539;DHT22;4307;53.868;11.680;2024-03-02T05:44:48;7.70;99.90
8539;DHT22;4307;53.868;11.680;2024-03-02T05:47:15;7.70;99.90
8539;DHT22;4307;53.868;11.680;2024-03-02T05:49:43;7.70;99.90
8539;DHT22;4307;53.868;11.680;2024-03-02T05:52:10;7.80;99.90
8539;DHT22;4307;53.868;11.680;2024-03-02T05:54:37;7.80;99.90
8539;DHT22;4307;53.868;11.680;2024-03-02T05:57:04;7.80;99.90
8539;DHT22;4307;53.868;11.680;2024-03-02T05:59:52;7.80;99.90
8539;DHT22;4307;53.868;11.680;2024-03-02T06:02:19;7.90;99.90
8539;DHT22;4307;53.868;11.680;2024-03-02T06:04:47;7.80;99.90
8539;DHT22;4307;53.868;11.680;2024-03-02T06:07:13;7.80;99.90
8539;DHT22;4307;53.868;11.680;2024-03-02T06:09:41;7.80;99.90
8539;DHT22;4307;53.868;11.680;2024-03-02T06:12:08;7.80;99.90
8539;DHT22;4307;53.868;11.680;2024-03-02T06:14:34;7.90;99.90
8539;DHT22;4307;53.868;11.680;2024-03-02T06:17:01;7.90;99.90
8539;DHT22;4307;53.868;11.680;2024-03-02T06:19:28;7.90;99.90
8539;DHT22;4307;53.868;11.680;2024-03-02T06:21:56;7.90;99.90
8539;DHT22;4307;53.868;11.680;2024-03-02T06:24:22;7.90;99.90
8539;DHT22;4307;53.868;11.680;2024-03-02T06:26:49;7.90;99.90
8539;DHT22;4307;53.868;11.680;2024-03-02T06:29:15;7.90;99.90
8539;DHT22;4307;53.868;11.680;2024-03-02T06:31:41;7.90;99.90
8539;DHT22;4307;53.868;11.680;2024-03-02T06:34:08;8.00;99.90
8539;DHT22;4307;53.868;11.680;2024-03-02T06:36:35;7.90;99.90
8539;DHT22;4307;53.868;11.680;2024-03-02T06:39:03;7.90;99.90
8539;DHT22;4307;53.868;11.680;2024-03-02T06:41:30;7.90;99.90
8539;DHT22;4307;53.868;11.680;2024-03-02T06:43:57;7.80;99.90
8539;DHT22;4307;53.868;11.680;2024-03-02T06:46:25;7.90;99.90
8539;DHT22;4307;53.868;11.680;2024-03-02T06:48:52;7.90;99.90
8539;DHT22;4307;53.868;11.680;2024-03-02T06:51:19;7.90;99.90
8539;DHT22;4307;53.868;11.680;2024-03-02T06:53:45;7.80;99.90
8539;DHT22;4307;53.868;11.680;2024-03-02T06:56:13;7.90;99.90
8539;DHT22;4307;53.868;11.680;2024-03-02T06:58:40;7.80;99.90
8539;DHT22;4307;53.868;11.680;2024-03-02T07:01:08;7.80;99.90
8539;DHT22;4307;53.868;11.680;2024-03-02T07:03:35;7.90;99.90
8539;DHT22;4307;53.868;11.680;2024-03-02T07:06:02;7.90;99.90
8539;DHT22;4307;53.868;11.680;2024-03-02T07:08:28;7.90;99.90
8539;DHT22;4307;53.868;11.680;2024-03-02T07:10:55;7.90;99.90
8539;DHT22;4307;53.868;11.680;2024-03-02T07:13:23;7.90;99.90
8539;DHT22;4307;53.868;11.680;2024-03-02T07:15:50;7.90;99.90
8539;DHT22;4307;53.868;11.680;2024-03-02T07:18:41;7.90;99.90
8539;DHT22;4307;53.868;11.680;2024-03-02T07:21:10;7.90;99.90
8539;DHT22;4307;53.868;11.680;2024-03-02T07:23:37;7.80;99.90
8539;DHT22;4307;53.868;11.680;2024-03-02T07:26:04;7.80;99.90
8539;DHT22;4307;53.868;11.680;2024-03-02T07:28:33;7.80;99.90
8539;DHT22;4307;53.868;11.680;2024-03-02T07:31:00;7.80;99.90
8539;DHT22;4307;53.868;11.680;2024-03-02T07:33:27;7.80;99.90
8539;DHT22;4307;53.868;11.680;2024-03-02T07:35:54;7.80;99.90
8539;DHT22;4307;53.868;11.680;2024-03-02T07:38:21;7.90;99.90
8539;DHT22;4307;53.868;11.680;2024-03-02T07:40:47;7.90;99.90
8539;DHT22;4307;53.868;11.680;2024-03-02T07:43:16;7.90;99.90
8539;DHT22;4307;53.868;11.680;2024-03-02T07:45:44;7.90;99.90
8539;DHT22;4307;53.868;11.680;2024-03-02T07:48:11;8.00;99.90
8539;DHT22;4307;53.868;11.680;2024-03-02T07:50:37;8.00;99.90
8539;DHT22;4307;53.868;11.680;2024-03-02T07:53:04;8.10;99.90
8539;DHT22;4307;53.868;11.680;2024-03-02T07:55:31;8.10;99.90
8539;DHT22;4307;53.868;11.680;2024-03-02T07:57:58;8.20;99.90
8539;DHT22;4307;53.868;11.680;2024-03-02T08:00:25;8.20;99.90
8539;DHT22;4307;53.868;11.680;2024-03-02T08:02:54;8.30;99.90
8539;DHT22;4307;53.868;11.680;2024-03-02T08:05:21;8.30;99.90
8539;DHT22;4307;53.868;11.680;2024-03-02T08:07:48;8.40;99.90
8539;DHT22;4307;53.868;11.680;2024-03-02T08:10:18;8.40;99.90
8539;DHT22;4307;53.868;11.680;2024-03-02T08:12:45;8.40;99.90
8539;DHT22;4307;53.868;11.680;2024-03-02T08:15:12;8.50;99.90
8539;DHT22;4307;53.868;11.680;2024-03-02T08:17:38;8.50;99.90
8539;DHT22;4307;53.868;11.680;2024-03-02T08:20:12;8.60;99.90
8539;DHT22;4307;53.868;11.680;2024-03-02T08:22:39;8.60;99.90
8539;DHT22;4307;53.868;11.680;2024-03-02T08:25:07;8.70;99.90
8539;DHT22;4307;53.868;11.680;2024-03-02T08:27:35;8.70;99.90
8539;DHT22;4307;53.868;11.680;2024-03-02T08:30:01;8.70;99.90
8539;DHT22;4307;53.868;11.680;2024-03-02T08:32:31;8.70;99.90
8539;DHT22;4307;53.868;11.680;2024-03-02T08:34:58;8.70;99.90
8539;DHT22;4307;53.868;11.680;2024-03-02T08:37:26;8.70;99.90
8539;DHT22;4307;53.868;11.680;2024-03-02T08:39:53;8.70;99.90
8539;DHT22;4307;53.868;11.680;2024-03-02T08:42:20;8.70;99.90
8539;DHT22;4307;53.868;11.680;2024-03-02T08:44:47;8.70;99.90
8539;DHT22;4307;53.868;11.680;2024-03-02T08:47:14;8.70;99.90
8539;DHT22;4307;53.868;11.680;2024-03-02T08:49:41;8.80;99.90
8539;DHT22;4307;53.868;11.680;2024-03-02T08:52:07;8.80;99.90
8539;DHT22;4307;53.868;11.680;2024-03-02T08:54:35;8.80;99.90
8539;DHT22;4307;53.868;11.680;2024-03-02T08:57:03;8.80;99.90
8539;DHT22;4307;53.868;11.680;2024-03-02T08:59:29;8.90;99.90
8539;DHT22;4307;53.868;11.680;2024-03-02T09:01:57;8.90;99.90
8539;DHT22;4307;53.868;11.680;2024-03-02T09:04:24;8.90;99.90
8539;DHT22;4307;53.868;11.680;2024-03-02T09:06:51;9.00;99.90
8539;DHT22;4307;53.868;11.680;2024-03-02T09:09:17;9.00;99.90
8539;DHT22;4307;53.868;11.680;2024-03-02T09:11:45;9.00;99.90
8539;DHT22;4307;53.868;11.680;2024-03-02T09:14:12;9.00;99.90
8539;DHT22;4307;53.868;11.680;2024-03-02T09:16:40;9.00;99.90
8539;DHT22;4307;53.868;11.680;2024-03-02T09:19:07;9.00;99.90
8539;DHT22;4307;53.868;11.680;2024-03-02T09:21:34;9.00;99.90
8539;DHT22;4307;53.868;11.680;2024-03-02T09:24:01;9.00;99.90
8539;DHT22;4307;53.868;11.680;2024-03-02T09:26:29;9.10;99.90
8539;DHT22;4307;53.868;11.680;2024-03-02T09:28:57;9.10;99.90
8539;DHT22;4307;53.868;11.680;2024-03-02T09:31:23;9.10;99.90
8539;DHT22;4307;53.868;11.680;2024-03-02T09:33:50;9.20;99.90
8539;DHT22;4307;53.868;11.680;2024-03-02T09:36:17;9.20;99.90
8539;DHT22;4307;53.868;11.680;2024-03-02T09:38:44;9.20;99.90
8539;DHT22;4307;53.868;11.680;2024-03-02T09:41:11;9.20;99.90
8539;DHT22;4307;53.868;11.680;2024-03-02T09:43:38;9.20;99.90
8539;DHT22;4307;53.868;11.680;2024-03-02T09:46:07;9.30;99.90
8539;DHT22;4307;53.868;11.680;2024-03-02T09:48:35;9.30;99.90
8539;DHT22;4307;53.868;11.680;2024-03-02T09:51:01;9.40;99.90
8539;DHT22;4307;53.868;11.680;2024-03-02T09:53:31;9.40;99.90
8539;DHT22;4307;53.868;11.680;2024-03-02T09:55:59;9.40;99.90
8539;DHT22;4307;53.868;11.680;2024-03-02T09:58:26;9.50;99.90
8539;DHT22;4307;53.868;11.680;2024-03-02T10:00:52;9.50;99.90
8539;DHT22;4307;53.868;11.680;2024-03-02T10:03:22;9.50;99.90
8539;DHT22;4307;53.868;11.680;2024-03-02T10:05:49;9.60;99.90
8539;DHT22;4307;53.868;11.680;2024-03-02T10:08:17;9.60;99.90
8539;DHT22;4307;53.868;11.680;2024-03-02T10:10:42;9.70;99.90
8539;DHT22;4307;53.868;11.680;2024-03-02T10:13:10;9.70;99.90
8539;DHT22;4307;53.868;11.680;2024-03-02T10:15:38;9.80;99.90
8539;DHT22;4307;53.868;11.680;2024-03-02T10:18:09;9.80;99.90
8539;DHT22;4307;53.868;11.680;2024-03-02T10:20:38;9.80;99.90
8539;DHT22;4307;53.868;11.680;2024-03-02T10:23:12;9.90;99.90
8539;DHT22;4307;53.868;11.680;2024-03-02T10:25:38;9.90;99.90
8539;DHT22;4307;53.868;11.680;2024-03-02T10:28:05;10.00;99.90
8539;DHT22;4307;53.868;11.680;2024-03-02T10:30:32;10.00;99.90
8539;DHT22;4307;53.868;11.680;2024-03-02T10:33:00;10.10;99.90
8539;DHT22;4307;53.868;11.680;2024-03-02T10:35:27;10.10;99.90
8539;DHT22;4307;53.868;11.680;2024-03-02T10:37:55;10.10;99.90
8539;DHT22;4307;53.868;11.680;2024-03-02T10:40:22;10.20;99.90
8539;DHT22;4307;53.868;11.680;2024-03-02T10:42:50;10.30;99.90
8539;DHT22;4307;53.868;11.680;2024-03-02T10:45:19;10.40;99.90
8539;DHT22;4307;53.868;11.680;2024-03-02T10:47:47;10.60;99.90
8539;DHT22;4307;53.868;11.680;2024-03-02T10:50:13;10.70;99.90
8539;DHT22;4307;53.868;11.680;2024-03-02T10:52:40;10.80;99.90
8539;DHT22;4307;53.868;11.680;2024-03-02T10:55:09;10.90;99.90
8539;DHT22;4307;53.868;11.680;2024-03-02T10:57:41;11.00;99.90
8539;DHT22;4307;53.868;11.680;2024-03-02T11:00:12;11.20;99.90
8539;DHT22;4307;53.868;11.680;2024-03-02T11:02:42;11.40;99.90
8539;DHT22;4307;53.868;11.680;2024-03-02T11:05:14;11.50;99.90
8539;DHT22;4307;53.868;11.680;2024-03-02T11:07:45;11.60;99.90
8539;DHT22;4307;53.868;11.680;2024-03-02T11:10:15;11.60;99.90
8539;DHT22;4307;53.868;11.680;2024-03-02T11:12:48;11.70;99.90
8539;DHT22;4307;53.868;11.680;2024-03-02T11:15:18;11.70;99.90
8539;DHT22;4307;53.868;11.680;2024-03-02T11:17:45;11.70;99.90
8539;DHT22;4307;53.868;11.680;2024-03-02T11:20:13;11.70;99.90
8539;DHT22;4307;53.868;11.680;2024-03-02T11:22:41;11.60;99.90
8539;DHT22;4307;53.868;11.680;2024-03-02T11:25:23;11.60;99.90
8539;DHT22;4307;53.868;11.680;2024-03-02T11:28:00;11.60;99.90
8539;DHT22;4307;53.868;11.680;2024-03-02T11:30:50;11.70;99.90
8539;DHT22;4307;53.868;11.680;2024-03-02T11:33:23;11.80;99.90
8539;DHT22;4307;53.868;11.680;2024-03-02T11:35:53;12.10;99.90
8539;DHT22;4307;53.868;11.680;2024-03-02T11:38:19;12.40;99.90
8539;DHT22;4307;53.868;11.680;2024-03-02T11:40:47;12.60;99.90
8539;DHT22;4307;53.868;11.680;2024-03-02T11:43:14;12.80;99.90
8539;DHT22;4307;53.868;11.680;2024-03-02T11:45:43;13.00;99.90
8539;DHT22;4307;53.868;11.680;2024-03-02T11:48:11;13.20;99.90
8539;DHT22;4307;53.868;11.680;2024-03-02T11:50:41;13.30;99.90
8539;DHT22;4307;53.868;11.680;2024-03-02T11:53:09;13.50;99.90
8539;DHT22;4307;53.868;11.680;2024-03-02T11:55:38;13.60;99.90
8539;DHT22;4307;53.868;11.680;2024-03-02T11:58:06;13.70;99.90
8539;DHT22;4307;53.868;11.680;2024-03-02T12:00:33;13.80;99.90
8539;DHT22;4307;53.868;11.680;2024-03-02T12:03:01;13.90;99.90
8539;DHT22;4307;53.868;11.680;2024-03-02T12:05:28;14.10;99.90
8539;DHT22;4307;53.868;11.680;2024-03-02T12:07:57;14.10;99.90
8539;DHT22;4307;53.868;11.680;2024-03-02T12:10:24;14.20;99.90
8539;DHT22;4307;53.868;11.680;2024-03-02T12:12:56;14.20;99.90
8539;DHT22;4307;53.868;11.680;2024-03-02T12:15:25;14.20;99.90
8539;DHT22;4307;53.868;11.680;2024-03-02T12:17:55;14.30;99.90
8539;DHT22;4307;53.868;11.680;2024-03-02T12:20:22;14.30;99.90
8539;DHT22;4307;53.868;11.680;2024-03-02T12:22:50;14.30;99.90
8539;DHT22;4307;53.868;11.680;2024-03-02T12:25:18;14.20;99.90
8539;DHT22;4307;53.868;11.680;2024-03-02T12:27:45;14.20;99.90
8539;DHT22;4307;53.868;11.680;2024-03-02T12:30:12;14.30;99.90
8539;DHT22;4307;53.868;11.680;2024-03-02T12:32:40;14.30;99.90
8539;DHT22;4307;53.868;11.680;2024-03-02T12:35:08;14.40;99.90
8539;DHT22;4307;53.868;11.680;2024-03-02T12:37:42;14.40;99.90
8539;DHT22;4307;53.868;11.680;2024-03-02T12:40:10;14.40;99.90
8539;DHT22;4307;53.868;11.680;2024-03-02T12:42:37;14.40;99.90
8539;DHT22;4307;53.868;11.680;2024-03-02T12:45:05;14.50;99.90
8539;DHT22;4307;53.868;11.680;2024-03-02T12:47:32;14.60;99.90
8539;DHT22;4307;53.868;11.680;2024-03-02T12:50:01;14.60;99.90
8539;DHT22;4307;53.868;11.680;2024-03-02T12:52:28;14.70;99.90
8539;DHT22;4307;53.868;11.680;2024-03-02T12:54:55;14.90;99.90
8539;DHT22;4307;53.868;11.680;2024-03-02T12:57:25;14.90;99.90
8539;DHT22;4307;53.868;11.680;2024-03-02T12:59:56;15.00;99.90
8539;DHT22;4307;53.868;11.680;2024-03-02T13:02:23;15.10;99.90
8539;DHT22;4307;53.868;11.680;2024-03-02T13:04:55;15.20;99.90
8539;DHT22;4307;53.868;11.680;2024-03-02T13:07:23;15.30;99.90
8539;DHT22;4307;53.868;11.680;2024-03-02T13:09:50;15.40;99.90
8539;DHT22;4307;53.868;11.680;2024-03-02T13:12:17;15.50;99.90
8539;DHT22;4307;53.868;11.680;2024-03-02T13:14:48;15.40;99.90
8539;DHT22;4307;53.868;11.680;2024-03-02T13:17:15;15.50;99.90
8539;DHT22;4307;53.868;11.680;2024-03-02T13:19:50;15.60;99.90
8539;DHT22;4307;53.868;11.680;2024-03-02T13:22:18;15.90;99.90
8539;DHT22;4307;53.868;11.680;2024-03-02T13:24:46;16.20;99.90
8539;DHT22;4307;53.868;11.680;2024-03-02T13:27:13;16.50;99.90
8539;DHT22;4307;53.868;11.680;2024-03-02T13:29:39;16.70;99.90
8539;DHT22;4307;53.868;11.680;2024-03-02T13:32:06;16.70;99.90
8539;DHT22;4307;53.868;11.680;2024-03-02T13:34:35;16.80;99.90
8539;DHT22;4307;53.868;11.680;2024-03-02T13:37:01;16.90;99.90
8539;DHT22;4307;53.868;11.680;2024-03-02T13:39:30;16.90;99.90
8539;DHT22;4307;53.868;11.680;2024-03-02T13:41:58;16.90;99.90
8539;DHT22;4307;53.868;11.680;2024-03-02T13:44:29;17.10;99.90
8539;DHT22;4307;53.868;11.680;2024-03-02T13:46:56;17.50;99.90
8539;DHT22;4307;53.868;11.680;2024-03-02T13:49:23;17.80;99.90
8539;DHT22;4307;53.868;11.680;2024-03-02T13:51:54;18.00;99.90
8539;DHT22;4307;53.868;11.680;2024-03-02T13:54:22;18.20;99.90
8539;DHT22;4307;53.868;11.680;2024-03-02T13:56:48;18.50;99.90
8539;DHT22;4307;53.868;11.680;2024-03-02T13:59:20;18.60;99.90
8539;DHT22;4307;53.868;11.680;2024-03-02T14:01:48;18.70;99.90
8539;DHT22;4307;53.868;11.680;2024-03-02T14:04:15;18.60;99.90
8539;DHT22;4307;53.868;11.680;2024-03-02T14:06:42;18.50;99.90
8539;DHT22;4307;53.868;11.680;2024-03-02T14:09:09;18.50;99.90
8539;DHT22;4307;53.868;11.680;2024-03-02T14:11:36;18.50;99.90
8539;DHT22;4307;53.868;11.680;2024-03-02T14:14:03;18.50;99.90
8539;DHT22;4307;53.868;11.680;2024-03-02T14:16:31;18.50;99.90
8539;DHT22;4307;53.868;11.680;2024-03-02T14:18:57;18.50;99.90
8539;DHT22;4307;53.868;11.680;2024-03-02T14:21:24;18.40;99.90
8539;DHT22;4307;53.868;11.680;2024-03-02T14:23:51;18.30;99.90
8539;DHT22;4307;53.868;11.680;2024-03-02T14:26:18;18.30;99.90
8539;DHT22;4307;53.868;11.680;2024-03-02T14:28:45;18.20;99.90
8539;DHT22;4307;53.868;11.680;2024-03-02T14:31:11;18.20;99.90
8539;DHT22;4307;53.868;11.680;2024-03-02T14:33:39;18.20;99.90
8539;DHT22;4307;53.868;11.680;2024-03-02T14:36:07;18.30;99.90
8539;DHT22;4307;53.868;11.680;2024-03-02T14:38:33;18.30;99.90
8539;DHT22;4307;53.868;11.680;2024-03-02T14:41:00;18.30;99.90
8539;DHT22;4307;53.868;11.680;2024-03-02T14:43:28;18.20;99.90
8539;DHT22;4307;53.868;11.680;2024-03-02T14:45:54;18.00;99.90
8539;DHT22;4307;53.868;11.680;2024-03-02T14:48:22;17.80;99.90
8539;DHT22;4307;53.868;11.680;2024-03-02T14:50:50;17.40;99.90
8539;DHT22;4307;53.868;11.680;2024-03-02T14:53:17;16.90;99.90
8539;DHT22;4307;53.868;11.680;2024-03-02T14:55:44;16.50;99.90
8539;DHT22;4307;53.868;11.680;2024-03-02T14:58:11;16.10;99.90
8539;DHT22;4307;53.868;11.680;2024-03-02T15:00:38;15.80;99.90
8539;DHT22;4307;53.868;11.680;2024-03-02T15:03:05;15.50;99.90
8539;DHT22;4307;53.868;11.680;2024-03-02T15:05:33;15.30;99.90
8539;DHT22;4307;53.868;11.680;2024-03-02T15:08:01;15.10;99.90
8539;DHT22;4307;53.868;11.680;2024-03-02T15:10:30;14.90;99.90
8539;DHT22;4307;53.868;11.680;2024-03-02T15:12:57;14.80;99.90
8539;DHT22;4307;53.868;11.680;2024-03-02T15:15:24;14.60;99.90
8539;DHT22;4307;53.868;11.680;2024-03-02T15:17:50;14.50;99.90
8539;DHT22;4307;53.868;11.680;2024-03-02T15:20:17;14.50;99.90
8539;DHT22;4307;53.868;11.680;2024-03-02T15:22:45;14.30;99.90
8539;DHT22;4307;53.868;11.680;2024-03-02T15:25:14;14.20;99.90
8539;DHT22;4307;53.868;11.680;2024-03-02T15:27:41;14.10;99.90
8539;DHT22;4307;53.868;11.680;2024-03-02T15:30:08;14.00;99.90
8539;DHT22;4307;53.868;11.680;2024-03-02T15:32:35;13.90;99.90
8539;DHT22;4307;53.868;11.680;2024-03-02T15:35:04;13.90;99.90
8539;DHT22;4307;53.868;11.680;2024-03-02T15:37:31;13.80;99.90
8539;DHT22;4307;53.868;11.680;2024-03-02T15:39:58;13.70;99.90
8539;DHT22;4307;53.868;11.680;2024-03-02T15:42:32;13.70;99.90
8539;DHT22;4307;53.868;11.680;2024-03-02T15:44:59;13.60;99.90
8539;DHT22;4307;53.868;11.680;2024-03-02T15:47:25;13.60;99.90
8539;DHT22;4307;53.868;11.680;2024-03-02T15:49:52;13.50;99.90
8539;DHT22;4307;53.868;11.680;2024-03-02T15:52:19;13.40;99.90
8539;DHT22;4307;53.868;11.680;2024-03-02T15:54:46;13.40;99.90
8539;DHT22;4307;53.868;11.680;2024-03-02T15:57:14;13.30;99.90
8539;DHT22;4307;53.868;11.680;2024-03-02T15:59:43;13.30;99.90